createdAt,value
2016-11-11T00:00:38.052Z,19.71
2016-11-11T00:01:37.735Z,19.65
2016-11-11T00:02:38.021Z,19.68
2016-11-11T00:03:37.414Z,19.68
2016-11-11T00:04:37.687Z,19.75
2016-11-11T00:05:37.973Z,19.79
2016-11-11T00:06:37.954Z,19.76
2016-11-11T00:07:37.939Z,19.82
2016-11-11T00:08:37.623Z,19.79
2016-11-11T00:09:37.598Z,19.67
2016-11-11T00:10:37.285Z,19.79
2016-11-11T00:11:37.573Z,19.68
2016-11-11T00:12:37.857Z,19.72
2016-11-11T00:13:37.843Z,19.64
2016-11-11T00:14:37.530Z,19.64
2016-11-11T00:15:37.810Z,19.68
2016-11-11T00:16:37.798Z,19.65
2016-11-11T00:17:37.775Z,19.72
2016-11-11T00:18:37.755Z,19.71
2016-11-11T00:19:37.749Z,19.71
2016-11-11T00:20:37.426Z,19.65
2016-11-11T00:21:37.113Z,19.6
2016-11-11T00:22:37.729Z,19.65
2016-11-11T00:23:37.686Z,19.61
2016-11-11T00:24:37.363Z,19.64
2016-11-11T00:25:37.353Z,19.62
2016-11-11T00:26:37.634Z,19.62
2016-11-11T00:27:37.653Z,19.6
2016-11-11T00:28:37.606Z,19.6
2016-11-11T00:29:37.621Z,19.58
2016-11-11T00:30:37.270Z,19.57
2016-11-11T00:31:37.256Z,19.53
2016-11-11T00:32:37.533Z,19.61
2016-11-11T00:33:37.215Z,19.58
2016-11-11T00:34:37.216Z,19.58
2016-11-11T00:35:37.186Z,19.57
2016-11-11T00:36:37.478Z,19.57
2016-11-11T00:37:37.153Z,19.53
2016-11-11T00:38:37.143Z,19.53
2016-11-11T00:39:37.431Z,19.53
2016-11-11T00:40:37.403Z,19.49
2016-11-11T00:41:37.389Z,19.52
2016-11-11T00:42:37.368Z,19.57
2016-11-11T00:43:37.351Z,19.58
2016-11-11T00:44:37.336Z,19.49
2016-11-11T00:45:37.321Z,19.6
2016-11-11T00:46:37.312Z,19.57
2016-11-11T00:47:37.312Z,19.47
2016-11-11T00:48:36.972Z,19.4
2016-11-11T00:49:36.955Z,19.45
2016-11-11T00:50:37.246Z,19.43
2016-11-11T00:51:37.224Z,19.5
2016-11-11T00:52:37.201Z,19.5
2016-11-11T00:53:37.191Z,19.35
2016-11-11T00:54:37.174Z,19.43
2016-11-11T00:55:37.187Z,19.45
2016-11-11T00:56:37.150Z,19.42
2016-11-11T00:57:36.831Z,19.43
2016-11-11T00:58:36.810Z,19.43
2016-11-11T00:59:37.124Z,19.42
2016-11-11T01:00:36.771Z,19.42
2016-11-11T01:01:37.055Z,19.42
2016-11-11T01:02:37.048Z,19.43
2016-11-11T01:03:36.726Z,19.34
2016-11-11T01:04:37.009Z,19.31
2016-11-11T01:05:36.993Z,19.43
2016-11-11T01:06:36.980Z,19.38
2016-11-11T01:07:36.658Z,19.4
2016-11-11T01:08:36.945Z,19.31
2016-11-11T01:09:36.632Z,19.38
2016-11-11T01:10:36.913Z,19.38
2016-11-11T01:11:36.896Z,19.28
2016-11-11T01:12:36.876Z,19.4
2016-11-11T01:13:36.567Z,19.4
2016-11-11T01:14:36.843Z,19.35
2016-11-11T01:15:36.828Z,19.35
2016-11-11T01:16:36.815Z,19.31
2016-11-11T01:17:36.492Z,19.3
2016-11-11T01:18:36.784Z,19.31
2016-11-11T01:19:36.767Z,19.27
2016-11-11T01:20:36.752Z,19.3
2016-11-11T01:21:36.739Z,19.25
2016-11-11T01:22:36.721Z,19.3
2016-11-11T01:23:36.706Z,19.27
2016-11-11T01:24:36.679Z,19.28
2016-11-11T01:25:36.666Z,19.32
2016-11-11T01:26:36.652Z,19.28
2016-11-11T01:27:36.631Z,19.27
2016-11-11T01:28:36.614Z,19.23
2016-11-11T01:29:36.001Z,19.3
2016-11-11T01:30:36.287Z,19.27
2016-11-11T01:31:36.570Z,19.27
2016-11-11T01:32:36.249Z,19.28
2016-11-11T01:33:36.567Z,19.2
2016-11-11T01:34:36.213Z,19.2
2016-11-11T01:35:36.498Z,19.2
2016-11-11T01:36:36.484Z,19.2
2016-11-11T01:37:36.463Z,19.23
2016-11-11T01:38:36.450Z,19.2
2016-11-11T01:39:36.134Z,19.17
2016-11-11T01:40:36.417Z,19.17
2016-11-11T01:41:36.404Z,19.2
2016-11-11T01:42:36.383Z,19.24
2016-11-11T01:43:36.371Z,19.17
2016-11-11T01:44:36.347Z,19.17
2016-11-11T01:45:36.335Z,19.13
2016-11-11T01:46:36.322Z,19.27
2016-11-11T01:47:36.299Z,19.25
2016-11-11T01:48:36.286Z,19.27
2016-11-11T01:49:36.273Z,19.25
2016-11-11T01:50:36.255Z,19.17
2016-11-11T01:51:35.936Z,19.24
2016-11-11T01:52:36.224Z,19.21
2016-11-11T01:53:35.907Z,19.16
2016-11-11T01:54:35.886Z,19.15
2016-11-11T01:55:35.869Z,19.15
2016-11-11T01:56:35.849Z,19.2
2016-11-11T01:57:36.132Z,19.15
2016-11-11T01:58:35.824Z,19.25
2016-11-11T01:59:36.108Z,19.13
2016-11-11T02:00:36.091Z,19.23
2016-11-11T02:01:35.768Z,19.07
2016-11-11T02:02:36.054Z,19.15
2016-11-11T02:03:35.731Z,19.2
2016-11-11T02:04:35.723Z,19.16
2016-11-11T02:05:35.700Z,19.15
2016-11-11T02:06:35.693Z,19.13
2016-11-11T02:07:35.972Z,19.16
2016-11-11T02:08:35.953Z,19.15
2016-11-11T02:09:35.648Z,19.21
2016-11-11T02:10:35.630Z,19.15
2016-11-11T02:11:35.905Z,19.12
2016-11-11T02:12:35.895Z,19.13
2016-11-11T02:13:35.573Z,19.15
2016-11-11T02:14:35.856Z,19.16
2016-11-11T02:15:35.834Z,19.07
2016-11-11T02:16:35.825Z,19.1
2016-11-11T02:17:35.804Z,19.2
2016-11-11T02:18:35.787Z,19.12
2016-11-11T02:19:35.776Z,19.2
2016-11-11T02:20:35.754Z,19.15
2016-11-11T02:21:35.737Z,19.1
2016-11-11T02:22:35.725Z,19.17
2016-11-11T02:23:35.409Z,19.17
2016-11-11T02:24:35.687Z,19.13
2016-11-11T02:25:35.373Z,19.15
2016-11-11T02:26:35.653Z,19.16
2016-11-11T02:27:35.640Z,19.13
2016-11-11T02:28:35.627Z,19.15
2016-11-11T02:29:35.604Z,19.12
2016-11-11T02:30:35.591Z,19.15
2016-11-11T02:31:35.575Z,19.2
2016-11-11T02:32:35.557Z,19.16
2016-11-11T02:33:35.543Z,19.16
2016-11-11T02:34:35.524Z,19.13
2016-11-11T02:35:35.505Z,19.13
2016-11-11T02:36:35.493Z,19.13
2016-11-11T02:37:35.166Z,19.13
2016-11-11T02:38:35.455Z,19.12
2016-11-11T02:39:35.148Z,19.1
2016-11-11T02:40:35.420Z,19.05
2016-11-11T02:41:35.411Z,19.07
2016-11-11T02:42:34.792Z,19.12
2016-11-11T02:43:35.373Z,19.12
2016-11-11T02:44:35.367Z,19.1
2016-11-11T02:45:35.345Z,19.1
2016-11-11T02:46:35.321Z,19.06
2016-11-11T02:47:35.358Z,19.01
2016-11-11T02:48:35.288Z,19.09
2016-11-11T02:49:35.280Z,19.13
2016-11-11T02:50:35.257Z,19.1
2016-11-11T02:51:35.237Z,19.06
2016-11-11T02:52:34.931Z,19.01
2016-11-11T02:53:35.213Z,18.99
2016-11-11T02:54:34.895Z,18.94
2016-11-11T02:55:35.171Z,18.93
2016-11-11T02:56:35.161Z,19.09
2016-11-11T02:57:34.840Z,18.99
2016-11-11T02:58:35.127Z,18.96
2016-11-11T02:59:35.106Z,19.07
2016-11-11T03:00:35.089Z,18.99
2016-11-11T03:01:35.090Z,19.06
2016-11-11T03:02:34.758Z,19.02
2016-11-11T03:03:35.041Z,18.99
2016-11-11T03:04:35.073Z,19.01
2016-11-11T03:05:35.008Z,19.02
2016-11-11T03:06:34.687Z,19.01
2016-11-11T03:07:34.978Z,18.99
2016-11-11T03:08:34.987Z,19.05
2016-11-11T03:09:34.938Z,18.99
2016-11-11T03:10:34.930Z,18.97
2016-11-11T03:11:34.903Z,18.96
2016-11-11T03:12:34.896Z,18.93
2016-11-11T03:13:34.871Z,18.97
2016-11-11T03:14:34.859Z,18.94
2016-11-11T03:15:34.842Z,19.02
2016-11-11T03:16:34.819Z,18.99
2016-11-11T03:17:34.506Z,19.01
2016-11-11T03:18:34.797Z,18.96
2016-11-11T03:19:34.768Z,18.97
2016-11-11T03:20:34.754Z,18.91
2016-11-11T03:21:34.748Z,18.94
2016-11-11T03:22:34.748Z,18.94
2016-11-11T03:23:34.716Z,18.97
2016-11-11T03:24:34.393Z,18.99
2016-11-11T03:25:34.668Z,19.02
2016-11-11T03:26:34.359Z,19.01
2016-11-11T03:27:34.641Z,18.94
2016-11-11T03:28:34.628Z,18.96
2016-11-11T03:29:34.307Z,18.84
2016-11-11T03:30:34.591Z,18.86
2016-11-11T03:31:34.583Z,19.01
2016-11-11T03:32:34.561Z,18.96
2016-11-11T03:33:34.535Z,18.89
2016-11-11T03:34:34.223Z,18.87
2016-11-11T03:35:34.207Z,18.96
2016-11-11T03:36:34.492Z,18.97
2016-11-11T03:37:34.169Z,18.94
2016-11-11T03:38:34.452Z,18.94
2016-11-11T03:39:34.440Z,18.93
2016-11-11T03:40:34.418Z,18.84
2016-11-11T03:41:34.408Z,18.84
2016-11-11T03:42:34.088Z,18.89
2016-11-11T03:43:34.379Z,18.9
2016-11-11T03:44:34.360Z,18.87
2016-11-11T03:45:34.341Z,18.94
2016-11-11T03:46:34.318Z,18.89
2016-11-11T03:47:34.003Z,18.86
2016-11-11T03:48:33.983Z,18.86
2016-11-11T03:49:34.270Z,18.89
2016-11-11T03:50:33.953Z,18.87
2016-11-11T03:51:34.238Z,18.84
2016-11-11T03:52:33.922Z,18.83
2016-11-11T03:53:34.205Z,18.87
2016-11-11T03:54:34.180Z,18.82
2016-11-11T03:55:33.868Z,18.84
2016-11-11T03:56:34.150Z,18.78
2016-11-11T03:57:34.142Z,18.72
2016-11-11T03:58:34.125Z,18.75
2016-11-11T03:59:33.805Z,18.76
2016-11-11T04:00:34.086Z,18.87
2016-11-11T04:01:34.073Z,18.78
2016-11-11T04:02:34.081Z,18.79
2016-11-11T04:03:34.034Z,18.76
2016-11-11T04:04:34.023Z,18.83
2016-11-11T04:05:34.002Z,18.76
2016-11-11T04:06:33.979Z,18.78
2016-11-11T04:07:33.967Z,18.72
2016-11-11T04:08:33.948Z,18.75
2016-11-11T04:09:33.939Z,18.82
2016-11-11T04:10:33.622Z,18.78
2016-11-11T04:11:33.907Z,18.82
2016-11-11T04:12:33.888Z,18.75
2016-11-11T04:13:33.868Z,18.83
2016-11-11T04:14:33.847Z,18.82
2016-11-11T04:15:33.832Z,18.75
2016-11-11T04:16:33.816Z,18.78
2016-11-11T04:17:33.797Z,18.78
2016-11-11T04:18:33.780Z,18.75
2016-11-11T04:19:33.465Z,18.78
2016-11-11T04:20:33.751Z,18.79
2016-11-11T04:21:33.732Z,18.76
2016-11-11T04:22:33.715Z,18.79
2016-11-11T04:23:33.696Z,18.75
2016-11-11T04:24:33.675Z,18.79
2016-11-11T04:25:33.362Z,18.79
2016-11-11T04:26:33.654Z,18.71
2016-11-11T04:27:33.630Z,18.76
2016-11-11T04:28:33.310Z,18.71
2016-11-11T04:29:33.597Z,18.76
2016-11-11T04:30:33.277Z,18.74
2016-11-11T04:31:33.562Z,18.75
2016-11-11T04:32:33.253Z,18.69
2016-11-11T04:33:33.530Z,18.69
2016-11-11T04:34:33.511Z,18.71
2016-11-11T04:35:33.494Z,18.76
2016-11-11T04:36:33.477Z,18.74
2016-11-11T04:37:33.457Z,18.64
2016-11-11T04:38:33.444Z,18.75
2016-11-11T04:39:33.426Z,18.76
2016-11-11T04:40:33.414Z,18.72
2016-11-11T04:41:33.398Z,18.65
2016-11-11T04:42:33.379Z,18.66
2016-11-11T04:43:33.358Z,18.66
2016-11-11T04:44:33.342Z,18.62
2016-11-11T04:45:33.325Z,18.6
2016-11-11T04:46:33.319Z,18.62
2016-11-11T04:47:33.293Z,18.68
2016-11-11T04:48:33.276Z,18.65
2016-11-11T04:49:33.263Z,18.71
2016-11-11T04:50:33.242Z,18.6
2016-11-11T04:51:33.223Z,18.65
2016-11-11T04:52:33.210Z,18.65
2016-11-11T04:53:32.922Z,18.65
2016-11-11T04:54:32.888Z,18.64
2016-11-11T04:55:32.860Z,18.64
2016-11-11T04:56:33.139Z,18.65
2016-11-11T04:57:32.825Z,18.6
2016-11-11T04:58:33.110Z,18.66
2016-11-11T04:59:33.089Z,18.66
2016-11-11T05:00:32.774Z,18.62
2016-11-11T05:01:32.757Z,18.62
2016-11-11T05:02:32.737Z,18.59
2016-11-11T05:03:32.738Z,18.6
2016-11-11T05:04:32.708Z,18.64
2016-11-11T05:05:32.988Z,18.64
2016-11-11T05:06:32.973Z,18.75
2016-11-11T05:07:32.656Z,18.9
2016-11-11T05:08:32.944Z,18.97
2016-11-11T05:09:32.923Z,18.99
2016-11-11T05:10:32.911Z,19.07
2016-11-11T05:11:32.893Z,19.15
2016-11-11T05:12:32.581Z,19.15
2016-11-11T05:13:32.854Z,19.28
2016-11-11T05:14:32.834Z,19.25
2016-11-11T05:15:32.816Z,19.43
2016-11-11T05:16:32.807Z,19.53
2016-11-11T05:17:32.788Z,19.55
2016-11-11T05:18:32.169Z,19.6
2016-11-11T05:19:32.449Z,19.6
2016-11-11T05:20:32.734Z,19.61
2016-11-11T05:21:32.727Z,19.7
2016-11-11T05:22:32.710Z,19.75
2016-11-11T05:23:32.687Z,19.8
2016-11-11T05:24:32.676Z,19.79
2016-11-11T05:25:32.652Z,19.83
2016-11-11T05:26:32.639Z,19.89
2016-11-11T05:27:32.624Z,19.82
2016-11-11T05:28:32.304Z,19.9
2016-11-11T05:29:31.983Z,19.87
2016-11-11T05:30:32.570Z,19.95
2016-11-11T05:31:32.553Z,19.98
2016-11-11T05:32:32.536Z,19.98
2016-11-11T05:33:32.547Z,19.92
2016-11-11T05:34:32.508Z,20
2016-11-11T05:35:32.484Z,19.9
2016-11-11T05:36:32.475Z,19.92
2016-11-11T05:37:32.452Z,19.94
2016-11-11T05:38:32.441Z,19.98
2016-11-11T05:39:32.421Z,19.94
2016-11-11T05:40:32.401Z,19.97
2016-11-11T05:41:32.385Z,19.95
2016-11-11T05:42:32.068Z,19.98
2016-11-11T05:43:32.357Z,19.95
2016-11-11T05:44:32.346Z,19.97
2016-11-11T05:45:32.026Z,19.95
2016-11-11T05:46:32.310Z,19.94
2016-11-11T05:47:32.292Z,19.9
2016-11-11T05:48:32.273Z,19.95
2016-11-11T05:49:32.254Z,19.94
2016-11-11T05:50:32.241Z,19.97
2016-11-11T05:51:32.232Z,19.95
2016-11-11T05:52:31.907Z,19.95
2016-11-11T05:53:32.187Z,19.97
2016-11-11T05:54:32.178Z,19.95
2016-11-11T05:55:32.165Z,20.04
2016-11-11T05:56:31.842Z,20.04
2016-11-11T05:57:32.123Z,20.04
2016-11-11T05:58:32.105Z,20.02
2016-11-11T05:59:31.489Z,20.1
2016-11-11T06:00:32.077Z,20.05
2016-11-11T06:01:32.060Z,20.05
2016-11-11T06:02:31.740Z,20.02
2016-11-11T06:03:31.727Z,20.07
2016-11-11T06:04:32.010Z,20.2
2016-11-11T06:05:32.027Z,20.08
2016-11-11T06:06:31.982Z,20.13
2016-11-11T06:07:31.962Z,20.05
2016-11-11T06:08:31.948Z,20.19
2016-11-11T06:09:31.959Z,20.16
2016-11-11T06:10:31.943Z,20.17
2016-11-11T06:11:31.905Z,20.2
2016-11-11T06:12:31.922Z,20.22
2016-11-11T06:13:31.899Z,20.17
2016-11-11T06:14:31.852Z,20.27
2016-11-11T06:15:31.531Z,20.19
2016-11-11T06:16:31.814Z,20.17
2016-11-11T06:17:31.797Z,20.2
2016-11-11T06:18:31.783Z,20.22
2016-11-11T06:19:31.768Z,20.2
2016-11-11T06:20:31.757Z,20.2
2016-11-11T06:21:31.429Z,20.17
2016-11-11T06:22:31.725Z,20.17
2016-11-11T06:23:31.701Z,20.19
2016-11-11T06:24:31.688Z,20.17
2016-11-11T06:25:31.700Z,20.17
2016-11-11T06:26:31.649Z,20.22
2016-11-11T06:27:31.636Z,20.25
2016-11-11T06:28:31.321Z,20.2
2016-11-11T06:29:31.598Z,20.33
2016-11-11T06:30:31.289Z,20.23
2016-11-11T06:31:31.566Z,20.3
2016-11-11T06:32:31.557Z,20.27
2016-11-11T06:33:31.541Z,20.31
2016-11-11T06:34:31.220Z,20.33
2016-11-11T06:35:31.505Z,20.35
2016-11-11T06:36:31.498Z,20.35
2016-11-11T06:37:31.472Z,20.34
2016-11-11T06:38:31.165Z,20.35
2016-11-11T06:39:31.442Z,20.37
2016-11-11T06:40:31.423Z,20.4
2016-11-11T06:41:31.412Z,20.33
2016-11-11T06:42:31.396Z,20.15
2016-11-11T06:43:31.379Z,19.82
2016-11-11T06:44:31.364Z,19.82
2016-11-11T06:45:31.347Z,19.83
2016-11-11T06:46:31.332Z,19.85
2016-11-11T06:47:31.316Z,19.89
2016-11-11T06:48:31.300Z,19.9
2016-11-11T06:49:30.984Z,19.82
2016-11-11T06:50:31.263Z,19.86
2016-11-11T06:51:31.248Z,19.86
2016-11-11T06:52:31.258Z,19.83
2016-11-11T06:53:30.921Z,19.85
2016-11-11T06:54:31.200Z,19.7
2016-11-11T06:55:31.195Z,19.71
2016-11-11T06:56:31.188Z,19.72
2016-11-11T06:57:31.153Z,19.67
2016-11-11T06:58:31.134Z,19.72
2016-11-11T06:59:31.118Z,19.8
2016-11-11T07:00:30.819Z,19.8
2016-11-11T07:01:31.086Z,19.9
2016-11-11T07:02:31.065Z,20.02
2016-11-11T07:03:31.054Z,20.01
2016-11-11T07:04:31.039Z,20.13
2016-11-11T07:05:31.021Z,20.2
2016-11-11T07:06:31.002Z,20.23
2016-11-11T07:07:30.991Z,20.31
2016-11-11T07:08:30.976Z,20.2
2016-11-11T07:09:30.956Z,20.17
2016-11-11T07:10:30.939Z,20.22
2016-11-11T07:11:30.926Z,20.16
2016-11-11T07:12:30.903Z,20.22
2016-11-11T07:13:30.589Z,20.22
2016-11-11T07:14:30.880Z,20.2
2016-11-11T07:15:30.860Z,20.2
2016-11-11T07:16:30.844Z,20.3
2016-11-11T07:17:30.531Z,20.26
2016-11-11T07:18:30.810Z,20.33
2016-11-11T07:19:30.797Z,20.3
2016-11-11T07:20:30.780Z,20.33
2016-11-11T07:21:30.765Z,19.87
2016-11-11T07:22:30.447Z,18.23
2016-11-11T07:23:30.730Z,17.4
2016-11-11T07:24:30.115Z,16.51
2016-11-11T07:25:30.703Z,15.52
2016-11-11T07:26:30.378Z,15.31
2016-11-11T07:27:30.665Z,15.03
2016-11-11T07:28:30.348Z,15.56
2016-11-11T07:29:30.637Z,16.54
2016-11-11T07:30:30.617Z,17.45
2016-11-11T07:31:30.600Z,18.11
2016-11-11T07:32:30.287Z,18.57
2016-11-11T07:33:30.271Z,18.97
2016-11-11T07:34:30.249Z,19.17
2016-11-11T07:35:30.545Z,19.46
2016-11-11T07:36:30.514Z,19.61
2016-11-11T07:37:30.501Z,19.71
2016-11-11T07:38:30.486Z,19.83
2016-11-11T07:39:30.472Z,19.87
2016-11-11T07:40:30.151Z,19.95
2016-11-11T07:41:30.438Z,19.98
2016-11-11T07:42:30.421Z,20.1
2016-11-11T07:43:30.408Z,20.19
2016-11-11T07:44:30.389Z,20.08
2016-11-11T07:45:30.369Z,20.17
2016-11-11T07:46:30.366Z,20.17
2016-11-11T07:47:30.341Z,20.22
2016-11-11T07:48:30.325Z,20.17
2016-11-11T07:49:30.353Z,20.19
2016-11-11T07:50:30.292Z,20.2
2016-11-11T07:51:29.667Z,20.2
2016-11-11T07:52:29.960Z,20.19
2016-11-11T07:53:30.246Z,20.25
2016-11-11T07:54:29.922Z,20.16
2016-11-11T07:55:30.211Z,20.22
2016-11-11T07:56:30.218Z,20.23
2016-11-11T07:57:29.871Z,20.25
2016-11-11T07:58:30.161Z,20.3
2016-11-11T07:59:30.144Z,20.35
2016-11-11T08:00:30.137Z,20.38
2016-11-11T08:01:30.108Z,20.33
2016-11-11T08:02:30.098Z,20.33
2016-11-11T08:03:29.780Z,20.34
2016-11-11T08:04:30.065Z,20.33
2016-11-11T08:05:30.047Z,20.35
2016-11-11T08:06:30.026Z,20.35
2016-11-11T08:07:30.010Z,20.34
2016-11-11T08:08:30.036Z,20.33
2016-11-11T08:09:29.977Z,20.44
2016-11-11T08:10:29.966Z,20.33
2016-11-11T08:11:29.950Z,20.3
2016-11-11T08:12:29.937Z,20.33
2016-11-11T08:13:29.918Z,20.38
2016-11-11T08:14:29.972Z,20.38
2016-11-11T08:15:29.896Z,20.35
2016-11-11T08:16:29.868Z,20.33
2016-11-11T08:17:29.847Z,20.38
2016-11-11T08:18:29.837Z,20.44
2016-11-11T08:19:29.823Z,20.4
2016-11-11T08:20:29.505Z,20.48
2016-11-11T08:21:29.790Z,20.41
2016-11-11T08:22:29.772Z,20.48
2016-11-11T08:23:29.493Z,20.53
2016-11-11T08:24:29.438Z,20.51
2016-11-11T08:25:29.439Z,20.53
2016-11-11T08:26:29.710Z,20.54
2016-11-11T08:27:29.390Z,20.48
2016-11-11T08:28:29.676Z,20.48
2016-11-11T08:29:29.658Z,20.63
2016-11-11T08:30:29.653Z,20.61
2016-11-11T08:31:29.646Z,20.66
2016-11-11T08:32:29.613Z,20.57
2016-11-11T08:33:29.591Z,20.63
2016-11-11T08:34:29.592Z,20.63
2016-11-11T08:35:29.567Z,20.66
2016-11-11T08:36:29.246Z,20.68
2016-11-11T08:37:29.524Z,20.71
2016-11-11T08:38:29.521Z,20.71
2016-11-11T08:39:29.499Z,20.68
2016-11-11T08:40:29.480Z,20.64
2016-11-11T08:41:29.475Z,20.64
2016-11-11T08:42:29.447Z,20.71
2016-11-11T08:43:29.451Z,20.64
2016-11-11T08:44:29.421Z,20.64
2016-11-11T08:45:29.405Z,20.75
2016-11-11T08:46:29.394Z,20.75
2016-11-11T08:47:29.368Z,20.75
2016-11-11T08:48:29.360Z,20.71
2016-11-11T08:49:29.347Z,20.72
2016-11-11T08:50:29.322Z,20.75
2016-11-11T08:51:29.307Z,20.72
2016-11-11T08:52:29.290Z,20.75
2016-11-11T08:53:29.277Z,20.71
2016-11-11T08:54:29.258Z,20.72
2016-11-11T08:55:28.640Z,20.73
2016-11-11T08:56:29.231Z,20.75
2016-11-11T08:57:29.216Z,20.68
2016-11-11T08:58:29.193Z,20.78
2016-11-11T08:59:28.880Z,20.68
2016-11-11T09:00:29.164Z,20.71
2016-11-11T09:01:28.853Z,20.66
2016-11-11T09:02:29.138Z,20.61
2016-11-11T09:03:29.114Z,20.64
2016-11-11T09:04:29.099Z,20.63
2016-11-11T09:05:29.090Z,20.69
2016-11-11T09:06:29.084Z,20.64
2016-11-11T09:07:29.056Z,20.66
2016-11-11T09:08:29.033Z,20.69
2016-11-11T09:09:29.020Z,20.64
2016-11-11T09:10:29.005Z,20.71
2016-11-11T09:11:28.697Z,20.6
2016-11-11T09:12:28.972Z,20.73
2016-11-11T09:13:28.962Z,20.63
2016-11-11T09:14:28.947Z,20.64
2016-11-11T09:15:28.920Z,20.76
2016-11-11T09:16:28.617Z,20.71
2016-11-11T09:17:28.909Z,20.72
2016-11-11T09:18:28.882Z,20.76
2016-11-11T09:19:28.859Z,20.76
2016-11-11T09:20:28.850Z,20.72
2016-11-11T09:21:28.830Z,20.73
2016-11-11T09:22:28.814Z,20.75
2016-11-11T09:23:28.798Z,20.76
2016-11-11T09:24:28.783Z,20.71
2016-11-11T09:25:28.768Z,20.75
2016-11-11T09:26:28.748Z,20.73
2016-11-11T09:27:28.737Z,20.81
2016-11-11T09:28:28.734Z,20.76
2016-11-11T09:29:28.705Z,20.73
2016-11-11T09:30:28.683Z,20.76
2016-11-11T09:31:28.669Z,20.79
2016-11-11T09:32:28.655Z,20.76
2016-11-11T09:33:28.638Z,20.76
2016-11-11T09:34:28.627Z,20.79
2016-11-11T09:35:28.605Z,20.91
2016-11-11T09:36:28.590Z,20.91
2016-11-11T09:37:28.579Z,20.83
2016-11-11T09:38:28.564Z,20.75
2016-11-11T09:39:28.549Z,20.76
2016-11-11T09:40:28.540Z,20.75
2016-11-11T09:41:28.516Z,20.75
2016-11-11T09:42:28.500Z,20.75
2016-11-11T09:43:28.486Z,20.76
2016-11-11T09:44:28.462Z,20.75
2016-11-11T09:45:28.450Z,20.78
2016-11-11T09:46:28.439Z,20.75
2016-11-11T09:47:28.414Z,20.76
2016-11-11T09:48:28.411Z,20.75
2016-11-11T09:49:28.384Z,20.72
2016-11-11T09:50:28.377Z,20.68
2016-11-11T09:51:28.364Z,20.71
2016-11-11T09:52:28.335Z,20.63
2016-11-11T09:53:28.318Z,20.64
2016-11-11T09:54:28.313Z,20.66
2016-11-11T09:55:28.294Z,20.63
2016-11-11T09:56:27.983Z,20.76
2016-11-11T09:57:28.268Z,20.66
2016-11-11T09:58:28.247Z,20.66
2016-11-11T09:59:28.229Z,20.71
2016-11-11T10:00:28.213Z,20.73
2016-11-11T10:01:27.903Z,20.72
2016-11-11T10:02:27.880Z,20.68
2016-11-11T10:03:28.166Z,20.75
2016-11-11T10:04:28.155Z,20.66
2016-11-11T10:05:28.134Z,20.73
2016-11-11T10:06:28.113Z,20.72
2016-11-11T10:07:28.099Z,20.73
2016-11-11T10:08:28.087Z,20.63
2016-11-11T10:09:28.065Z,20.76
2016-11-11T10:10:27.752Z,20.68
2016-11-11T10:11:28.039Z,20.71
2016-11-11T10:12:28.023Z,20.75
2016-11-11T10:13:28.010Z,20.73
2016-11-11T10:14:27.993Z,20.75
2016-11-11T10:15:27.676Z,20.73
2016-11-11T10:16:27.959Z,20.75
2016-11-11T10:17:27.945Z,20.78
2016-11-11T10:18:27.630Z,20.79
2016-11-11T10:19:27.914Z,20.75
2016-11-11T10:20:27.602Z,20.78
2016-11-11T10:21:27.878Z,20.78
2016-11-11T10:22:27.863Z,20.79
2016-11-11T10:23:27.848Z,20.79
2016-11-11T10:24:27.831Z,20.76
2016-11-11T10:25:27.819Z,20.73
2016-11-11T10:26:27.802Z,20.75
2016-11-11T10:27:27.489Z,20.76
2016-11-11T10:28:27.770Z,20.81
2016-11-11T10:29:27.755Z,20.78
2016-11-11T10:30:27.741Z,20.75
2016-11-11T10:31:27.720Z,20.81
2016-11-11T10:32:27.715Z,20.76
2016-11-11T10:33:27.688Z,20.85
2016-11-11T10:34:27.675Z,20.81
2016-11-11T10:35:27.659Z,20.87
2016-11-11T10:36:27.342Z,20.83
2016-11-11T10:37:27.635Z,20.87
2016-11-11T10:38:27.608Z,20.79
2016-11-11T10:39:27.593Z,20.83
2016-11-11T10:40:27.577Z,20.87
2016-11-11T10:41:27.565Z,20.83
2016-11-11T10:42:27.569Z,20.83
2016-11-11T10:43:27.536Z,20.83
2016-11-11T10:44:27.514Z,20.87
2016-11-11T10:45:27.509Z,20.83
2016-11-11T10:46:27.488Z,20.85
2016-11-11T10:47:27.470Z,20.76
2016-11-11T10:48:27.157Z,20.79
2016-11-11T10:49:27.477Z,20.75
2016-11-11T10:50:27.417Z,20.72
2016-11-11T10:51:27.105Z,20.76
2016-11-11T10:52:27.416Z,20.75
2016-11-11T10:53:27.407Z,20.75
2016-11-11T10:54:27.356Z,20.76
2016-11-11T10:55:27.345Z,20.72
2016-11-11T10:56:27.327Z,20.72
2016-11-11T10:57:27.314Z,20.73
2016-11-11T10:58:27.298Z,20.73
2016-11-11T10:59:27.282Z,20.78
2016-11-11T11:00:27.267Z,20.85
2016-11-11T11:01:27.243Z,20.83
2016-11-11T11:02:27.235Z,20.87
2016-11-11T11:03:26.917Z,20.97
2016-11-11T11:04:27.201Z,20.91
2016-11-11T11:05:27.185Z,21
2016-11-11T11:06:27.168Z,21.05
2016-11-11T11:07:27.152Z,21.06
2016-11-11T11:08:27.141Z,21.12
2016-11-11T11:09:27.119Z,21.18
2016-11-11T11:10:26.808Z,21.16
2016-11-11T11:11:27.098Z,21.11
2016-11-11T11:12:27.077Z,21.13
2016-11-11T11:13:27.059Z,21.13
2016-11-11T11:14:27.078Z,21.11
2016-11-11T11:15:27.024Z,21.12
2016-11-11T11:16:27.012Z,21.13
2016-11-11T11:17:26.995Z,21.16
2016-11-11T11:18:26.979Z,21.16
2016-11-11T11:19:26.665Z,21.11
2016-11-11T11:20:26.644Z,21.12
2016-11-11T11:21:26.931Z,21.03
2016-11-11T11:22:26.917Z,21
2016-11-11T11:23:26.901Z,21
2016-11-11T11:24:26.595Z,20.97
2016-11-11T11:25:26.876Z,21.05
2016-11-11T11:26:26.849Z,21.05
2016-11-11T11:27:26.839Z,20.97
2016-11-11T11:28:26.820Z,21.01
2016-11-11T11:29:26.504Z,21.05
2016-11-11T11:30:26.797Z,21.08
2016-11-11T11:31:26.785Z,21.06
2016-11-11T11:32:26.763Z,21.13
2016-11-11T11:33:26.447Z,21.16
2016-11-11T11:34:26.729Z,21.18
2016-11-11T11:35:26.720Z,21.11
2016-11-11T11:36:26.695Z,21.12
2016-11-11T11:37:26.680Z,21.13
2016-11-11T11:38:26.678Z,21.12
2016-11-11T11:39:26.648Z,21.16
2016-11-11T11:40:26.328Z,21.13
2016-11-11T11:41:26.617Z,21.13
2016-11-11T11:42:26.606Z,21.03
2016-11-11T11:43:26.588Z,21.09
2016-11-11T11:44:26.578Z,21.13
2016-11-11T11:45:26.562Z,21.13
2016-11-11T11:46:26.541Z,21.15
2016-11-11T11:47:26.527Z,21.12
2016-11-11T11:48:26.502Z,21.15
2016-11-11T11:49:26.519Z,21.19
2016-11-11T11:50:26.478Z,21.12
2016-11-11T11:51:26.457Z,21.13
2016-11-11T11:52:26.454Z,21.13
2016-11-11T11:53:26.431Z,21.01
2016-11-11T11:54:26.415Z,21.05
2016-11-11T11:55:26.398Z,20.97
2016-11-11T11:56:26.387Z,21.05
2016-11-11T11:57:26.370Z,21
2016-11-11T11:58:26.354Z,20.97
2016-11-11T11:59:26.375Z,21.06
2016-11-11T12:00:26.018Z,21.09
2016-11-11T12:01:26.312Z,21.05
2016-11-11T12:02:26.295Z,21.05
2016-11-11T12:03:26.289Z,21.01
2016-11-11T12:04:26.272Z,21
2016-11-11T12:05:25.950Z,21.05
2016-11-11T12:06:26.234Z,20.98
2016-11-11T12:07:25.920Z,21.01
2016-11-11T12:08:26.221Z,20.98
2016-11-11T12:09:26.176Z,20.98
2016-11-11T12:10:25.876Z,21.01
2016-11-11T12:11:26.169Z,20.96
2016-11-11T12:12:25.841Z,21.05
2016-11-11T12:13:26.127Z,21.03
2016-11-11T12:14:26.114Z,20.94
2016-11-11T12:15:26.095Z,20.97
2016-11-11T12:16:26.087Z,20.97
2016-11-11T12:17:25.772Z,20.97
2016-11-11T12:18:26.041Z,20.91
2016-11-11T12:19:25.726Z,20.98
2016-11-11T12:20:26.018Z,20.91
2016-11-11T12:21:26.019Z,21.03
2016-11-11T12:22:25.995Z,20.97
2016-11-11T12:23:25.670Z,21.03
2016-11-11T12:24:25.957Z,21
2016-11-11T12:25:25.637Z,21.08
2016-11-11T12:26:25.931Z,21.08
2016-11-11T12:27:25.928Z,20.98
2016-11-11T12:28:25.904Z,21.15
2016-11-11T12:29:25.564Z,21.11
2016-11-11T12:30:25.874Z,21.05
2016-11-11T12:31:25.541Z,21.08
2016-11-11T12:32:25.825Z,21.01
2016-11-11T12:33:25.238Z,21.05
2016-11-11T12:34:25.793Z,20.96
2016-11-11T12:35:25.804Z,20.97
2016-11-11T12:36:25.762Z,21
2016-11-11T12:37:25.449Z,20.97
2016-11-11T12:38:25.720Z,20.94
2016-11-11T12:39:25.739Z,20.94
2016-11-11T12:40:25.428Z,20.85
2016-11-11T12:41:25.391Z,20.88
2016-11-11T12:42:25.374Z,20.82
2016-11-11T12:43:25.044Z,20.96
2016-11-11T12:44:25.657Z,20.94
2016-11-11T12:45:25.615Z,20.96
2016-11-11T12:46:25.609Z,21
2016-11-11T12:47:25.592Z,20.97
2016-11-11T12:48:25.598Z,20.96
2016-11-11T12:49:25.257Z,20.85
2016-11-11T12:50:25.247Z,20.87
2016-11-11T12:51:25.525Z,20.88
2016-11-11T12:52:25.512Z,20.88
2016-11-11T12:53:25.498Z,20.87
2016-11-11T12:54:25.472Z,20.91
2016-11-11T12:55:25.171Z,20.82